createdAt,value
2023-03-11T00:00:48.862Z,0.41
2023-03-11T00:03:52.907Z,0.41
2023-03-11T00:06:57.428Z,0.43
2023-03-11T00:10:01.634Z,0.44
2023-03-11T00:13:08.480Z,0.40
2023-03-11T00:16:12.659Z,0.36
2023-03-11T00:19:16.939Z,0.34
2023-03-11T00:22:21.127Z,0.34
2023-03-11T00:25:29.653Z,0.31
2023-03-11T00:28:34.588Z,0.27
2023-03-11T00:31:38.944Z,0.26
2023-03-11T00:34:43.619Z,0.23
2023-03-11T00:37:48.994Z,0.23
2023-03-11T00:40:53.288Z,0.26
2023-03-11T00:43:57.567Z,0.25
2023-03-11T00:47:02.107Z,0.25
2023-03-11T00:50:08.302Z,0.16
2023-03-11T00:53:13.029Z,0.15
2023-03-11T00:56:17.176Z,0.17
2023-03-11T00:59:22.257Z,0.22
2023-03-11T01:02:26.892Z,0.26
2023-03-11T01:05:33.640Z,0.29
2023-03-11T01:08:38.388Z,0.26
2023-03-11T01:11:43.190Z,0.24
2023-03-11T01:14:47.377Z,0.22
2023-03-11T01:17:51.373Z,0.08
2023-03-11T01:20:55.992Z,0.12
2023-03-11T01:24:00.450Z,0.09
2023-03-11T01:27:04.843Z,0.08
2023-03-11T01:30:13.468Z,0.07
2023-03-11T01:33:19.411Z,0.07
2023-03-11T01:36:23.999Z,0.05
2023-03-11T01:39:28.207Z,-0.01
2023-03-11T01:42:32.488Z,-0.02
2023-03-11T01:45:50.093Z,-0.08
2023-03-11T01:48:56.803Z,-0.08
2023-03-11T01:52:07.853Z,-0.14
2023-03-11T01:55:15.138Z,-0.20
2023-03-11T01:58:26.988Z,-0.20
2023-03-11T02:01:31.927Z,-0.19
2023-03-11T02:04:37.977Z,-0.17
2023-03-11T02:07:42.448Z,-0.21
2023-03-11T02:10:48.405Z,-0.26
2023-03-11T02:13:58.492Z,-0.31
2023-03-11T02:17:03.211Z,-0.35
2023-03-11T02:20:31.845Z,-0.33
2023-03-11T02:24:16.665Z,-0.36
2023-03-11T02:27:22.526Z,-0.33
2023-03-11T02:30:28.395Z,-0.29
2023-03-11T02:33:36.627Z,-0.31
2023-03-11T02:36:43.206Z,-0.33
2023-03-11T02:39:52.414Z,-0.37
2023-03-11T02:43:05.977Z,-0.32
2023-03-11T02:46:12.499Z,-0.35
2023-03-11T02:49:18.022Z,-0.37
2023-03-11T02:52:25.375Z,-0.41
2023-03-11T02:55:30.135Z,-0.52
2023-03-11T02:58:34.420Z,-0.49
2023-03-11T03:01:38.995Z,-0.56
2023-03-11T03:04:43.329Z,-0.60
2023-03-11T03:07:48.880Z,-0.56
2023-03-11T03:10:53.627Z,-0.51
2023-03-11T03:13:57.924Z,-0.46
2023-03-11T03:17:02.551Z,-0.40
2023-03-11T03:20:11.646Z,-0.43
2023-03-11T03:23:16.256Z,-0.40
2023-03-11T03:26:20.942Z,-0.46
2023-03-11T03:29:25.192Z,-0.47
2023-03-11T03:32:29.472Z,-0.52
2023-03-11T03:35:34.476Z,-0.62
2023-03-11T03:38:39.064Z,-0.65
2023-03-11T03:41:43.584Z,-0.70
2023-03-11T03:44:48.147Z,-0.72
2023-03-11T03:47:52.274Z,-0.82
2023-03-11T03:50:57.353Z,-0.85
2023-03-11T03:54:01.530Z,-0.78
2023-03-11T03:57:06.224Z,-0.78
2023-03-11T04:00:13.260Z,-0.80
2023-03-11T04:03:17.868Z,-0.86
2023-03-11T04:06:27.708Z,-0.92
2023-03-11T04:09:33.677Z,-1.00
2023-03-11T04:12:38.217Z,-1.08
2023-03-11T04:15:42.261Z,-1.07
2023-03-11T04:18:47.067Z,-1.16
2023-03-11T04:21:51.978Z,-1.16
2023-03-11T04:24:56.538Z,-1.21
2023-03-11T04:28:01.216Z,-1.17
2023-03-11T04:31:05.867Z,-1.18
2023-03-11T04:34:10.376Z,-1.18
2023-03-11T04:37:14.520Z,-1.17
2023-03-11T04:40:18.981Z,-1.14
2023-03-11T04:43:23.257Z,-1.04
2023-03-11T04:46:27.738Z,-1.06
2023-03-11T04:49:31.947Z,-0.98
2023-03-11T04:52:36.345Z,-0.99
2023-03-11T04:55:41.467Z,-0.97
2023-03-11T04:58:45.990Z,-1.03
2023-03-11T05:01:50.591Z,-0.99
2023-03-11T05:04:54.925Z,-0.99
2023-03-11T05:07:59.191Z,-1.02
2023-03-11T05:11:04.210Z,-1.03
2023-03-11T05:14:08.604Z,-1.06
2023-03-11T05:17:14.820Z,-1.11
2023-03-11T05:20:19.468Z,-1.21
2023-03-11T05:23:23.705Z,-1.18
2023-03-11T05:26:27.856Z,-1.23
2023-03-11T05:29:32.531Z,-1.17
2023-03-11T05:32:36.866Z,-1.19
2023-03-11T05:35:42.894Z,-1.15
2023-03-11T05:38:47.249Z,-1.06
2023-03-11T05:41:51.365Z,-1.02
2023-03-11T05:44:55.734Z,-1.04
2023-03-11T05:48:00.260Z,-1.01
2023-03-11T05:51:11.688Z,-1.04
2023-03-11T05:54:17.118Z,-1.07
2023-03-11T05:57:21.713Z,-1.06
2023-03-11T06:00:29.049Z,-1.13
2023-03-11T06:03:33.293Z,-1.16
2023-03-11T06:06:41.556Z,-1.21
2023-03-11T06:09:45.580Z,-1.23
2023-03-11T06:12:50.153Z,-1.32
2023-03-11T06:15:54.835Z,-1.35
2023-03-11T06:19:02.489Z,-1.25
2023-03-11T06:22:07.100Z,-1.33
2023-03-11T06:25:12.884Z,-1.34
2023-03-11T06:28:17.680Z,-1.30
2023-03-11T06:31:26.912Z,-1.38
2023-03-11T06:34:30.965Z,-1.36
2023-03-11T06:37:37.435Z,-1.34
2023-03-11T06:40:41.928Z,-1.29
2023-03-11T06:43:46.666Z,-1.26
2023-03-11T06:46:51.338Z,-1.31
2023-03-11T06:49:55.517Z,-1.33
2023-03-11T06:52:59.870Z,-1.27
2023-03-11T06:56:09.263Z,-1.29
2023-03-11T06:59:15.443Z,-1.33
2023-03-11T07:02:19.783Z,-1.33
2023-03-11T07:05:24.370Z,-1.29
2023-03-11T07:08:29.183Z,-1.25
2023-03-11T07:11:33.975Z,-1.24
2023-03-11T07:14:38.097Z,-1.22
2023-03-11T07:17:42.266Z,-1.14
2023-03-11T07:20:46.515Z,-1.08
2023-03-11T07:24:00.123Z,-0.87
2023-03-11T07:27:04.653Z,-0.78
2023-03-11T07:30:10.263Z,-0.63
2023-03-11T07:33:15.916Z,-0.58
2023-03-11T07:36:24.404Z,-0.56
2023-03-11T07:39:29.067Z,-0.46
2023-03-11T07:42:34.840Z,-0.41
2023-03-11T07:45:39.323Z,-0.44
2023-03-11T07:48:43.755Z,-0.38
2023-03-11T07:51:48.321Z,-0.27
2023-03-11T07:54:52.655Z,-0.27
2023-03-11T07:57:57.010Z,-0.21
2023-03-11T08:01:16.290Z,-0.21
2023-03-11T08:04:20.682Z,-0.13
2023-03-11T08:07:25.136Z,-0.11
2023-03-11T08:10:29.749Z,-0.05
2023-03-11T08:13:35.069Z,-0.05
2023-03-11T08:16:40.628Z,0.00
2023-03-11T08:19:45.218Z,0.02
2023-03-11T08:22:58.087Z,0.07
2023-03-11T08:26:12.344Z,0.13
2023-03-11T08:29:16.544Z,0.08
2023-03-11T08:32:20.947Z,0.20
2023-03-11T08:35:26.904Z,0.28
2023-03-11T08:38:31.643Z,0.32
2023-03-11T08:41:35.897Z,0.30
2023-03-11T08:44:40.139Z,0.34
2023-03-11T08:47:44.588Z,0.29
2023-03-11T08:50:54.285Z,0.32
2023-03-11T08:54:00.569Z,0.35
2023-03-11T08:57:05.200Z,0.41
2023-03-11T09:00:13.233Z,0.44
2023-03-11T09:03:18.023Z,0.53
2023-03-11T09:06:22.844Z,0.60
2023-03-11T09:09:27.323Z,0.62
2023-03-11T09:12:31.681Z,0.60
2023-03-11T09:15:36.524Z,0.63
2023-03-11T09:18:41.732Z,0.77
2023-03-11T09:21:47.344Z,0.79
2023-03-11T09:24:53.110Z,0.82
2023-03-11T09:27:57.667Z,0.88
2023-03-11T09:31:02.298Z,0.87
2023-03-11T09:34:07.873Z,0.93
2023-03-11T09:37:13.247Z,1.04
2023-03-11T09:40:22.110Z,1.14
2023-03-11T09:44:07.894Z,1.25
2023-03-11T09:47:29.492Z,1.33
2023-03-11T09:50:44.379Z,1.46
2023-03-11T09:54:05.158Z,1.38
2023-03-11T09:57:39.707Z,1.55
2023-03-11T10:00:45.479Z,1.59
2023-03-11T10:03:56.827Z,1.76
2023-03-11T10:07:09.669Z,1.82
2023-03-11T10:10:17.763Z,1.81
2023-03-11T10:13:52.482Z,1.89
2023-03-11T10:17:48.375Z,1.91
2023-03-11T10:21:03.376Z,2.05
2023-03-11T10:24:20.125Z,2.29
2023-03-11T10:28:06.104Z,2.43
2023-03-11T10:31:25.012Z,2.53
2023-03-11T10:35:29.741Z,2.71
2023-03-11T10:38:42.647Z,2.65
2023-03-11T10:41:53.709Z,2.89
2023-03-11T10:45:01.127Z,3.19
2023-03-11T10:48:15.657Z,3.36
2023-03-11T10:51:29.051Z,3.29
2023-03-11T10:54:50.070Z,3.69
2023-03-11T10:58:14.010Z,4.02
2023-03-11T11:01:22.087Z,4.08
2023-03-11T11:04:47.718Z,4.16
2023-03-11T11:08:22.687Z,4.17
2023-03-11T11:11:31.380Z,4.14
2023-03-11T11:14:48.466Z,4.03
2023-03-11T11:17:58.025Z,4.00
2023-03-11T11:24:45.652Z,4.20
2023-03-11T11:28:01.035Z,4.54
2023-03-11T11:31:22.015Z,4.63
2023-03-11T11:34:33.840Z,4.43
2023-03-11T11:37:48.737Z,4.21
2023-03-11T11:40:56.738Z,4.24
2023-03-11T11:44:07.066Z,4.11
2023-03-11T11:47:22.595Z,4.35
2023-03-11T11:50:34.510Z,4.34
2023-03-11T11:53:47.206Z,4.01
2023-03-11T11:56:51.394Z,4.05
2023-03-11T11:59:57.488Z,4.39
2023-03-11T12:03:57.691Z,4.66
2023-03-11T12:07:49.192Z,4.78
2023-03-11T12:11:42.110Z,4.58
2023-03-11T12:15:07.490Z,4.55
2023-03-11T12:18:42.790Z,4.57
2023-03-11T12:22:20.220Z,4.60
2023-03-11T12:25:39.938Z,4.58
2023-03-11T12:29:26.320Z,4.45
2023-03-11T12:32:56.894Z,4.50
2023-03-11T12:36:03.549Z,4.53
2023-03-11T12:39:29.167Z,4.63
2023-03-11T12:42:41.069Z,4.51
2023-03-11T12:45:55.702Z,4.66
2023-03-11T12:49:15.337Z,5.24
2023-03-11T12:52:24.854Z,5.05
2023-03-11T12:55:36.294Z,5.44
2023-03-11T12:59:07.615Z,5.35
2023-03-11T13:02:51.689Z,4.92
2023-03-11T13:06:15.147Z,5.19
2023-03-11T13:09:19.981Z,4.92
2023-03-11T13:12:47.463Z,4.72
2023-03-11T13:15:56.907Z,4.61
2023-03-11T13:19:27.854Z,5.28
2023-03-11T13:23:01.376Z,6.23
2023-03-11T13:26:40.659Z,5.68
2023-03-11T13:30:06.307Z,5.72
2023-03-11T13:33:19.057Z,5.42
2023-03-11T13:36:57.368Z,5.19
2023-03-11T13:40:23.057Z,5.11
2023-03-11T13:43:28.388Z,5.49
2023-03-11T13:46:39.908Z,6.11
2023-03-11T13:50:10.264Z,6.20
2023-03-11T13:53:31.818Z,5.72
2023-03-11T13:56:46.821Z,5.34
2023-03-11T13:59:54.319Z,5.34
2023-03-11T14:03:21.300Z,5.22
2023-03-11T14:06:31.314Z,4.99
2023-03-11T14:09:35.869Z,4.93
2023-03-11T14:12:40.859Z,4.86
2023-03-11T14:16:35.261Z,5.02
2023-03-11T14:19:40.214Z,5.42
2023-03-11T14:22:55.077Z,5.74
2023-03-11T14:26:10.067Z,5.74
2023-03-11T14:29:21.434Z,5.56
2023-03-11T14:32:30.416Z,5.49
2023-03-11T14:35:39.896Z,5.36
2023-03-11T14:38:49.896Z,5.44
2023-03-11T14:42:23.792Z,5.16
2023-03-11T14:45:40.024Z,5.16
2023-03-11T14:48:47.323Z,5.07
2023-03-11T14:52:10.546Z,5.10
2023-03-11T14:55:38.252Z,5.02
2023-03-11T14:59:07.978Z,4.84
2023-03-11T15:03:12.643Z,4.78
2023-03-11T15:06:29.914Z,4.78
2023-03-11T15:09:43.095Z,4.76
2023-03-11T15:12:51.509Z,4.56
2023-03-11T15:16:36.125Z,4.43
2023-03-11T15:20:08.902Z,4.32
2023-03-11T15:23:27.629Z,4.07
2023-03-11T15:26:49.346Z,4.07
2023-03-11T15:30:07.504Z,4.02
2023-03-11T15:33:39.044Z,4.07
2023-03-11T15:36:57.496Z,4.22
2023-03-11T15:40:38.632Z,4.51
2023-03-11T15:44:13.776Z,4.45
2023-03-11T15:47:23.817Z,4.43
2023-03-11T15:50:46.771Z,4.71
2023-03-11T15:53:56.428Z,4.46
2023-03-11T15:57:08.705Z,4.63
2023-03-11T16:00:24.077Z,4.36
2023-03-11T16:03:32.913Z,4.22
2023-03-11T16:06:37.236Z,4.20
2023-03-11T16:09:42.285Z,4.06
2023-03-11T16:12:47.058Z,4.02
2023-03-11T16:15:52.398Z,3.94
2023-03-11T16:18:57.029Z,3.93
2023-03-11T16:22:02.897Z,3.90
2023-03-11T16:25:22.731Z,3.92
2023-03-11T16:28:32.708Z,3.75
2023-03-11T16:31:39.266Z,3.44
2023-03-11T16:34:45.512Z,3.19
2023-03-11T16:37:50.885Z,3.09
2023-03-11T16:41:02.044Z,3.10
2023-03-11T16:44:09.734Z,3.14
2023-03-11T16:47:18.273Z,3.15
2023-03-11T16:50:24.460Z,3.15
2023-03-11T16:53:29.367Z,3.17
2023-03-11T16:56:41.734Z,3.22
2023-03-11T16:59:46.525Z,3.24
2023-03-11T17:02:51.711Z,3.22
2023-03-11T17:06:03.093Z,2.97
2023-03-11T17:09:07.313Z,2.60
2023-03-11T17:12:15.766Z,2.48
2023-03-11T17:15:20.788Z,2.53
2023-03-11T17:18:27.035Z,2.55
2023-03-11T17:22:03.375Z,2.57
2023-03-11T19:07:04.729Z,2.53
2023-03-11T19:10:10.208Z,2.15
2023-03-11T19:13:19.130Z,1.86
2023-03-11T19:16:26.223Z,1.72
2023-03-11T19:19:31.588Z,1.65
2023-03-11T19:22:36.907Z,1.61
2023-03-11T19:25:44.029Z,1.60
2023-03-11T19:29:00.856Z,1.57
2023-03-11T19:32:05.875Z,1.49
2023-03-11T19:35:14.387Z,1.48
2023-03-11T19:38:19.283Z,1.51
2023-03-11T19:41:23.294Z,1.51
2023-03-11T19:44:27.790Z,1.50
2023-03-11T19:47:32.247Z,1.52
2023-03-11T19:50:36.445Z,1.55
2023-03-11T19:53:41.805Z,1.57
2023-03-11T19:56:46.663Z,1.61
2023-03-11T19:59:51.014Z,1.64
2023-03-11T20:02:56.852Z,1.64
2023-03-11T20:06:06.523Z,1.62
2023-03-11T20:09:11.653Z,1.68
2023-03-11T20:12:16.669Z,1.70
2023-03-11T20:15:21.611Z,1.69
2023-03-11T20:18:25.681Z,1.74
2023-03-11T20:21:30.440Z,1.76
2023-03-11T20:24:34.794Z,1.80
2023-03-11T20:27:39.290Z,1.81
2023-03-11T20:30:43.563Z,1.81
2023-03-11T20:33:49.913Z,1.86
2023-03-11T20:36:54.077Z,1.88
2023-03-11T20:39:58.768Z,1.82
2023-03-11T20:43:03.620Z,1.79
2023-03-11T20:46:09.716Z,1.77
2023-03-11T20:49:14.576Z,1.76
2023-03-11T20:52:19.715Z,1.76
2023-03-11T20:55:24.059Z,1.74
2023-03-11T20:58:28.297Z,1.74
2023-03-11T21:01:34.105Z,1.71
2023-03-11T21:04:41.203Z,1.64
2023-03-11T21:07:48.858Z,1.61
2023-03-11T21:11:00.863Z,1.54
2023-03-11T21:14:07.648Z,1.56
2023-03-11T21:17:12.149Z,1.55
2023-03-11T21:20:17.272Z,1.47
2023-03-11T21:23:21.850Z,1.43
2023-03-11T21:26:26.149Z,1.47
2023-03-11T21:29:30.882Z,1.50
2023-03-11T21:32:35.726Z,1.49
2023-03-11T21:35:40.183Z,1.53
2023-03-11T21:38:47.287Z,1.54
2023-03-11T21:41:53.330Z,1.58
2023-03-11T21:44:58.315Z,1.61
2023-03-11T21:48:06.683Z,1.64
2023-03-11T21:51:11.413Z,1.64
2023-03-11T21:54:15.918Z,1.61
2023-03-11T21:57:20.572Z,1.64
2023-03-11T22:00:25.184Z,1.59
2023-03-11T22:03:30.825Z,1.56
2023-03-11T22:06:35.469Z,1.54
2023-03-11T22:09:40.399Z,1.51
2023-03-11T22:12:45.254Z,1.45
2023-03-11T22:15:50.588Z,1.42
2023-03-11T22:18:55.367Z,1.39
2023-03-11T22:21:59.635Z,1.33
2023-03-11T22:25:05.564Z,1.29
2023-03-11T22:28:12.829Z,1.28
2023-03-11T22:31:18.982Z,1.26
2023-03-11T22:34:23.895Z,1.26
2023-03-11T22:37:28.299Z,1.19
2023-03-11T22:40:35.073Z,1.17
2023-03-11T22:43:39.876Z,1.19
2023-03-11T22:46:44.226Z,1.18
2023-03-11T22:49:48.757Z,1.11
2023-03-11T22:52:53.209Z,1.02
2023-03-11T22:55:57.764Z,1.02
2023-03-11T22:59:02.560Z,1.06
2023-03-11T23:02:06.901Z,1.01
2023-03-11T23:05:13.381Z,0.99
2023-03-11T23:08:18.213Z,1.00
2023-03-11T23:11:23.411Z,1.09
2023-03-11T23:14:37.752Z,1.03
2023-03-11T23:17:46.477Z,1.01
2023-03-11T23:20:50.623Z,1.03
2023-03-11T23:23:56.205Z,1.02
2023-03-11T23:27:00.963Z,0.98
2023-03-11T23:30:06.640Z,1.02
2023-03-11T23:33:10.866Z,1.00
2023-03-11T23:36:21.693Z,1.00
2023-03-11T23:39:25.808Z,1.03
2023-03-11T23:42:34.638Z,1.00
2023-03-11T23:45:39.138Z,0.99
2023-03-11T23:48:43.334Z,1.01
2023-03-11T23:51:47.479Z,0.97
2023-03-11T23:54:52.102Z,0.94
2023-03-11T23:57:56.493Z,0.97
